Airport ID:K65S
Update Time (UTC):23 FEB 20 07:59
Wind Speed (Knots):CALM
Wind Direction (Magnetic):
Temperature (°C):0
Dew Point (°C):-3
Humidity (%):82
Altimeter (inHg):30.01
Density Altitude (Feet):
Visibility (Miles):10
Clouds (Hundreds of feet):CLR
Present Weather:NO PRECIPITATION
METAR:METAR K65S 230755Z AUTO 01003KT 10SM CLR 00/M03 A3001 RMK AO2

The data displayed is for advisory purposes only and is not to be used for flight planning or operations.

This page is not automatically refreshed. Reload the page to see current data.